createdAt,value
2023-08-16T08:33:56.718Z,100708.44
2023-08-16T08:37:00.628Z,100720.94
2023-08-16T08:40:04.233Z,100711.50
2023-08-16T08:43:07.490Z,100725.13
2023-08-16T08:46:10.150Z,100725.00
2023-08-16T08:49:14.951Z,100732.66
2023-08-16T08:52:18.922Z,100724.19
2023-08-16T08:55:21.685Z,100733.41
2023-08-16T08:58:26.286Z,100736.97
2023-08-16T09:01:29.224Z,100731.81
2023-08-16T09:04:34.346Z,100729.88
2023-08-16T09:07:41.295Z,100719.66
2023-08-16T09:10:44.495Z,100728.75
2023-08-16T09:13:48.604Z,100730.19
2023-08-16T09:16:51.079Z,100723.03
2023-08-16T09:19:53.704Z,100727.81
2023-08-16T09:22:56.794Z,100726.19
2023-08-16T09:26:00.933Z,100726.72
2023-08-16T09:29:04.245Z,100728.28
2023-08-16T09:32:09.483Z,100725.47
2023-08-16T09:35:14.847Z,100735.22
2023-08-16T09:38:37.979Z,100721.56
2023-08-16T09:41:52.336Z,100723.34
2023-08-16T09:44:55.233Z,100730.31
2023-08-16T09:48:00.678Z,100714.78
2023-08-16T09:54:14.691Z,100716.25
2023-08-16T10:00:24.869Z,100714.69
2023-08-16T10:03:27.841Z,100711.81
2023-08-16T10:09:43.101Z,100699.09
2023-08-16T10:12:48.761Z,100719.56
2023-08-16T10:15:56.830Z,100717.84
2023-08-16T10:19:02.022Z,100728.03
2023-08-16T10:22:22.930Z,100725.00
2023-08-16T10:25:39.907Z,100736.50
2023-08-16T10:28:46.422Z,100732.53
2023-08-16T10:31:51.089Z,100729.06
2023-08-16T10:34:56.394Z,100726.69
2023-08-16T10:37:58.936Z,100718.72
2023-08-16T10:41:13.610Z,100724.66
2023-08-16T10:44:24.626Z,100727.84
2023-08-16T10:47:28.619Z,100722.41
2023-08-16T10:50:35.576Z,100734.25
2023-08-16T10:53:38.881Z,100729.47
2023-08-16T10:56:45.771Z,100716.28
2023-08-16T10:59:49.419Z,100701.06
2023-08-16T11:02:55.907Z,100700.00
2023-08-16T11:06:01.518Z,100699.63
2023-08-16T11:09:04.336Z,100691.84
2023-08-16T11:12:09.865Z,100687.50
2023-08-16T11:15:12.361Z,100697.41
2023-08-16T11:18:16.717Z,100692.22
2023-08-16T11:21:20.857Z,100701.81
2023-08-16T11:24:25.074Z,100703.41
2023-08-16T11:27:27.820Z,100710.44
2023-08-16T11:30:33.694Z,100710.47
2023-08-16T11:33:44.047Z,100704.63
2023-08-16T11:36:46.478Z,100704.03
2023-08-16T11:40:00.096Z,100697.47
2023-08-16T11:43:05.987Z,100692.56
2023-08-16T11:46:08.669Z,100692.06
2023-08-16T11:49:14.143Z,100700.47
2023-08-16T11:52:26.886Z,100698.34
2023-08-16T11:55:31.346Z,100687.13
2023-08-16T11:58:45.209Z,100691.69
2023-08-16T12:01:48.814Z,100679.28
2023-08-16T12:04:52.459Z,100676.91
2023-08-16T12:07:54.984Z,100662.91
2023-08-16T12:10:57.533Z,100665.22
2023-08-16T12:14:02.722Z,100663.25
2023-08-16T12:17:06.576Z,100645.44
2023-08-16T12:20:10.247Z,100648.16
2023-08-16T12:23:13.173Z,100640.22
2023-08-16T12:26:15.898Z,100643.03
2023-08-16T12:29:18.615Z,100642.84
2023-08-16T12:32:21.141Z,100636.88
2023-08-16T12:35:24.078Z,100640.31
2023-08-16T12:38:27.168Z,100646.06
2023-08-16T12:41:29.636Z,100640.75
2023-08-16T12:44:32.361Z,100637.03
2023-08-16T12:47:34.892Z,100629.47
2023-08-16T12:50:37.935Z,100627.19
2023-08-16T12:53:40.362Z,100634.28
2023-08-16T12:56:46.441Z,100633.38
2023-08-16T12:59:51.922Z,100624.22
2023-08-16T13:02:57.910Z,100630.66
2023-08-16T13:06:07.680Z,100635.94
2023-08-16T13:09:25.428Z,100642.31
2023-08-16T13:12:33.404Z,100626.81
2023-08-16T13:15:40.786Z,100621.84
2023-08-16T13:18:45.791Z,100617.72
2023-08-16T13:28:02.493Z,100596.38
2023-08-16T13:31:06.810Z,100598.78
2023-08-16T13:46:41.370Z,100577.69
2023-08-16T13:49:46.552Z,100574.38
2023-08-16T13:52:49.040Z,100578.88
2023-08-16T13:55:51.538Z,100578.25
2023-08-16T13:58:54.062Z,100583.63
2023-08-16T14:01:56.616Z,100583.63
2023-08-16T14:04:59.052Z,100570.78
2023-08-16T14:08:01.633Z,100574.19
2023-08-16T14:11:04.372Z,100571.59
2023-08-16T14:14:06.995Z,100564.53
2023-08-16T14:17:09.645Z,100570.81
2023-08-16T14:20:12.412Z,100564.16
2023-08-16T14:23:16.211Z,100562.09
2023-08-16T14:26:22.077Z,100564.88
2023-08-16T14:29:24.991Z,100562.66
2023-08-16T14:32:27.883Z,100549.44
2023-08-16T14:35:30.536Z,100557.25
2023-08-16T14:38:35.375Z,100565.75
2023-08-16T14:41:40.074Z,100561.94
2023-08-16T14:44:42.462Z,100553.53
2023-08-16T14:47:44.940Z,100553.44
2023-08-16T14:50:47.463Z,100561.56
2023-08-16T14:53:50.113Z,100553.94
2023-08-16T14:56:52.630Z,100559.34
2023-08-16T14:59:55.356Z,100559.81
2023-08-16T15:03:00.802Z,100559.75
2023-08-16T15:06:03.930Z,100559.06
2023-08-16T15:09:07.542Z,100552.28
2023-08-16T15:12:10.027Z,100537.88
2023-08-16T15:15:13.847Z,100549.13
2023-08-16T15:18:16.350Z,100545.63
2023-08-16T15:21:18.788Z,100548.25
2023-08-16T15:24:21.293Z,100537.75
2023-08-16T15:27:23.801Z,100542.09
2023-08-16T15:30:26.327Z,100539.59
2023-08-16T15:33:29.134Z,100529.22
2023-08-16T15:36:31.580Z,100531.97
2023-08-16T15:39:34.068Z,100530.00
2023-08-16T15:42:36.710Z,100523.84
2023-08-16T15:45:39.759Z,100522.31
2023-08-16T15:48:42.320Z,100523.09
2023-08-16T15:51:44.854Z,100518.25
2023-08-16T15:54:47.374Z,100517.25
2023-08-16T15:57:49.827Z,100505.22
2023-08-16T16:00:56.513Z,100512.22
2023-08-16T16:03:59.774Z,100514.34
2023-08-16T16:07:02.404Z,100505.38
2023-08-16T16:10:05.249Z,100515.84
2023-08-16T16:13:08.112Z,100512.03
2023-08-16T16:16:10.772Z,100507.81
2023-08-16T16:19:13.763Z,100505.63
2023-08-16T16:22:16.492Z,100497.44
2023-08-16T16:25:18.965Z,100500.94
2023-08-16T16:28:21.489Z,100493.19
2023-08-16T16:31:24.005Z,100495.94
2023-08-16T16:34:26.474Z,100492.78
2023-08-16T16:37:28.974Z,100497.63
2023-08-16T16:40:31.570Z,100499.38
2023-08-16T16:43:34.515Z,100499.31
2023-08-16T16:46:37.013Z,100505.59
2023-08-16T16:49:39.508Z,100514.69
2023-08-16T16:52:41.939Z,100516.53
2023-08-16T16:55:46.053Z,100520.88
2023-08-16T16:58:48.911Z,100520.34
2023-08-16T17:01:51.550Z,100518.22
2023-08-16T17:04:54.034Z,100514.38
2023-08-16T17:07:57.337Z,100511.19
2023-08-16T17:10:59.846Z,100506.78
2023-08-16T17:14:02.339Z,100512.97
2023-08-16T17:17:06.782Z,100518.22
2023-08-16T17:20:10.973Z,100515.09
2023-08-16T17:23:13.521Z,100528.88
2023-08-16T17:26:16.099Z,100533.59
2023-08-16T17:29:18.571Z,100535.59
2023-08-16T17:32:21.067Z,100531.78
2023-08-16T17:35:23.498Z,100521.53
2023-08-16T17:38:26.037Z,100520.63
2023-08-16T17:41:28.820Z,100532.19
2023-08-16T17:44:31.234Z,100555.47
2023-08-16T17:47:35.809Z,100599.72
2023-08-16T17:50:41.260Z,100723.59
2023-08-16T17:54:16.246Z,65738.94
2023-08-16T17:57:18.730Z,65738.94
2023-08-16T18:00:21.193Z,65738.94
2023-08-16T18:03:24.797Z,65738.94
2023-08-16T18:06:27.409Z,65738.94
2023-08-16T18:09:31.813Z,65738.94
2023-08-16T18:12:34.406Z,65738.94
2023-08-16T18:15:36.826Z,65738.94
2023-08-16T18:18:39.310Z,65738.94
2023-08-16T18:21:41.765Z,65738.94
2023-08-16T18:24:44.283Z,65738.94
2023-08-16T18:27:46.832Z,65738.94
2023-08-16T18:30:50.295Z,65738.94
2023-08-16T18:33:52.805Z,65738.94
2023-08-16T18:36:55.327Z,65738.94
2023-08-16T18:39:57.955Z,65738.94
2023-08-16T18:43:00.509Z,65738.94
2023-08-16T18:46:03.068Z,65738.94
2023-08-16T18:49:05.595Z,65738.94
2023-08-16T18:52:08.062Z,65738.94
2023-08-16T18:55:10.545Z,65738.94
2023-08-16T18:58:13.038Z,65738.94
2023-08-16T19:01:17.724Z,65738.94
2023-08-16T19:04:21.388Z,65738.94
2023-08-16T19:07:24.075Z,65738.94
2023-08-16T19:10:26.729Z,65738.94
2023-08-16T19:13:29.170Z,65738.94
2023-08-16T19:16:33.930Z,65738.94
2023-08-16T19:19:36.648Z,65738.94
2023-08-16T19:22:39.329Z,65738.94
2023-08-16T19:25:41.877Z,65738.94
2023-08-16T19:28:44.422Z,65738.94
2023-08-16T19:31:46.965Z,65738.94
2023-08-16T19:34:49.606Z,65738.94
2023-08-16T19:37:52.200Z,65738.94
2023-08-16T19:40:54.703Z,65738.94
2023-08-16T19:44:06.949Z,65738.94
2023-08-16T19:47:09.684Z,65738.94
2023-08-16T19:50:23.588Z,65738.94
2023-08-16T19:53:26.684Z,65738.94
2023-08-16T19:56:29.313Z,65738.94
2023-08-16T19:59:31.739Z,65738.94
2023-08-16T20:02:34.663Z,65738.94
2023-08-16T20:05:39.538Z,65738.94
2023-08-16T20:08:41.906Z,65738.94
2023-08-16T20:11:44.577Z,65738.94
2023-08-16T20:14:47.015Z,65738.94
2023-08-16T20:17:49.451Z,65738.94
2023-08-16T20:20:52.045Z,65738.94
2023-08-16T20:23:54.543Z,65738.94
2023-08-16T20:26:57.072Z,65738.94
2023-08-16T20:30:00.151Z,65738.94
2023-08-16T20:33:02.702Z,65738.94
2023-08-16T20:36:05.922Z,65738.94
2023-08-16T20:39:09.181Z,65738.94
2023-08-16T20:42:11.806Z,65738.94
2023-08-16T20:45:14.359Z,65738.94
2023-08-16T20:48:16.869Z,65738.94
2023-08-16T20:51:19.396Z,65738.94
2023-08-16T20:54:21.908Z,65738.94
2023-08-16T20:57:25.231Z,65738.94
2023-08-16T21:00:27.923Z,65738.94
2023-08-16T21:03:30.335Z,65738.94
2023-08-16T21:06:32.753Z,65738.94
2023-08-16T21:09:36.360Z,65738.94
2023-08-16T21:12:38.829Z,65738.94
2023-08-16T21:15:41.372Z,65738.94
2023-08-16T21:18:43.857Z,65738.94
2023-08-16T21:21:46.358Z,65738.94
2023-08-16T21:24:48.939Z,65738.94
2023-08-16T21:27:51.819Z,65738.94
2023-08-16T21:30:54.340Z,65738.94
2023-08-16T21:33:56.863Z,65738.94
2023-08-16T21:37:00.380Z,65738.94
2023-08-16T21:40:03.057Z,65738.94
2023-08-16T21:43:05.681Z,65738.94
2023-08-16T21:46:08.179Z,65738.94
2023-08-16T21:49:11.660Z,65738.94
2023-08-16T21:52:14.137Z,65738.94
2023-08-16T21:55:16.700Z,65738.94
2023-08-16T21:58:19.654Z,65738.94
2023-08-16T22:01:22.141Z,65738.94
2023-08-16T22:04:24.822Z,65738.94
2023-08-16T22:07:27.423Z,65738.94
2023-08-16T22:10:30.547Z,65738.94
2023-08-16T22:13:33.296Z,65738.94
2023-08-16T22:16:35.816Z,65738.94
2023-08-16T22:19:38.335Z,65738.94
2023-08-16T22:22:45.030Z,65738.94
2023-08-16T22:25:47.491Z,65738.94
2023-08-16T22:28:56.876Z,65738.94
2023-08-16T22:31:59.531Z,65738.94
2023-08-16T22:35:02.143Z,65738.94
2023-08-16T22:38:04.729Z,65738.94
2023-08-16T22:41:09.722Z,65738.94
2023-08-16T22:44:12.268Z,65738.94
2023-08-16T22:47:15.237Z,65738.94
2023-08-16T22:50:19.710Z,65738.94
2023-08-16T22:53:22.268Z,65738.94
2023-08-16T22:56:24.721Z,65738.94
2023-08-16T22:59:27.177Z,65738.94
2023-08-16T23:02:29.684Z,65738.94
2023-08-16T23:05:32.545Z,65738.94
2023-08-16T23:08:34.990Z,65738.94
2023-08-16T23:11:37.443Z,65738.94
2023-08-16T23:14:39.976Z,65738.94
2023-08-16T23:17:42.541Z,65738.94
2023-08-16T23:20:45.088Z,65738.94
2023-08-16T23:23:47.589Z,65738.94
2023-08-16T23:26:50.078Z,65738.94
2023-08-16T23:29:52.556Z,65738.94
2023-08-16T23:32:55.159Z,65738.94
2023-08-16T23:35:57.706Z,65738.94
2023-08-16T23:39:00.284Z,65738.94
2023-08-16T23:42:02.870Z,65738.94
2023-08-16T23:45:05.875Z,65738.94
2023-08-16T23:48:08.484Z,65738.94
2023-08-16T23:51:11.227Z,65738.94
2023-08-16T23:54:13.697Z,65738.94
2023-08-16T23:57:16.154Z,65738.94
